Time;durP1;ratioP1;P1;durP2;ratioP2;P2;SDS_P1;SDS_P2;PMS_P1;PMS_P2;Temp;Humidity;BMP_temperature;BMP_pressure;BME280_temperature;BME280_humidity;BME280_pressure;Samples;Min_cycle;Max_cycle;Signal;HPM_P1;HPM_P2
2022/06/13 00:04:00;;;;;;;3.13;2.78;;;23.40;90.20;;;;;;10053089;28;20052;-61
2022/06/13 00:08:51;;;;;;;5.57;3.00;;;23.30;90.30;;;;;;10035640;28;20033;-61
2022/06/13 00:13:44;;;;;;;4.43;2.63;;;23.30;90.40;;;;;;10052683;28;20422;-60
2022/06/13 00:18:35;;;;;;;3.60;2.70;;;23.40;90.40;;;;;;10051874;28;20045;-61
2022/06/13 00:23:26;;;;;;;6.25;2.97;;;23.30;90.40;;;;;;10058879;28;20148;-61
2022/06/13 00:28:17;;;;;;;4.18;2.67;;;23.30;90.50;;;;;;10034815;28;20231;-62
2022/06/13 00:33:08;;;;;;;5.13;2.58;;;23.20;90.80;;;;;;10051724;28;20042;-60
2022/06/13 00:37:58;;;;;;;4.22;3.03;;;23.20;91.00;;;;;;10053395;28;20049;-63
2022/06/13 00:42:49;;;;;;;4.38;2.30;;;23.20;91.30;;;;;;10052443;28;20033;-61
2022/06/13 00:47:42;;;;;;;4.55;2.42;;;23.00;91.20;;;;;;10052456;28;20044;-62
2022/06/13 00:53:10;;;;;;;3.80;1.92;;;22.70;91.50;;;;;;10052541;28;20045;-61
2022/06/13 00:58:01;;;;;;;2.92;1.88;;;22.50;91.50;;;;;;9992761;28;20044;-60
2022/06/13 01:02:54;;;;;;;2.63;1.52;;;22.40;91.50;;;;;;10052368;28;20018;-61
2022/06/13 01:07:46;;;;;;;3.28;1.48;;;22.40;91.20;;;;;;10053496;28;20055;-62
2022/06/13 01:12:37;;;;;;;1.67;1.10;;;22.30;90.90;;;;;;10051314;28;20060;-61
2022/06/13 01:17:56;;;;;;;2.90;1.55;;;22.30;90.60;;;;;;10050377;28;20412;-61
2022/06/13 01:23:22;;;;;;;1.67;1.02;;;22.40;90.00;;;;;;10056405;28;20124;-60
2022/06/13 01:28:50;;;;;;;1.90;1.20;;;22.40;89.40;;;;;;10051156;28;20025;-60
2022/06/13 01:34:19;;;;;;;4.22;1.83;;;22.10;89.50;;;;;;10041172;28;20042;-61
2022/06/13 01:39:32;;;;;;;2.05;1.15;;;21.80;90.00;;;;;;10050632;28;20503;-61
2022/06/13 01:44:50;;;;;;;1.50;1.10;;;21.70;90.00;;;;;;10042158;28;20029;-61
2022/06/13 01:49:41;;;;;;;4.60;1.17;;;21.50;90.20;;;;;;10056758;28;20024;-60
2022/06/13 01:55:13;;;;;;;2.03;1.40;;;21.40;90.00;;;;;;10057886;28;20034;-61
2022/06/13 02:00:15;;;;;;;2.08;1.02;;;21.30;90.10;;;;;;10047416;28;20047;-61
2022/06/13 02:05:16;;;;;;;2.08;1.00;;;21.30;90.00;;;;;;10040761;28;20053;-61
2022/06/13 02:10:12;;;;;;;3.65;1.45;;;21.40;89.30;;;;;;10057453;28;20044;-60
2022/06/13 02:15:28;;;;;;;2.80;1.33;;;21.30;88.90;;;;;;10056525;28;20463;-60
2022/06/13 02:20:34;;;;;;;1.77;1.10;;;21.20;88.80;;;;;;10059857;28;20044;-61
2022/06/13 02:25:35;;;;;;;2.33;1.17;;;21.10;88.90;;;;;;10057934;28;20324;-61
2022/06/13 02:30:38;;;;;;;2.67;1.20;;;21.10;89.20;;;;;;10037536;28;20037;-61
2022/06/13 02:35:49;;;;;;;2.20;1.02;;;21.00;88.30;;;;;;10056275;28;20121;-61
2022/06/13 02:40:45;;;;;;;2.10;1.17;;;20.90;88.30;;;;;;10031585;28;20042;-61
2022/06/13 02:45:55;;;;;;;1.58;1.13;;;20.90;88.10;;;;;;10017726;28;20108;-60
2022/06/13 02:51:04;;;;;;;4.35;0.98;;;20.70;87.80;;;;;;10020940;28;20081;-61
2022/06/13 02:56:00;;;;;;;3.95;1.55;;;20.50;87.60;;;;;;10050342;28;20016;-61
2022/06/13 03:01:26;;;;;;;3.15;1.10;;;20.60;86.90;;;;;;10045661;28;20021;-60
2022/06/13 03:06:43;;;;;;;2.03;1.00;;;20.50;86.70;;;;;;10029960;28;20054;-61
2022/06/13 03:11:36;;;;;;;4.45;1.55;;;20.50;86.50;;;;;;10041868;28;20083;-59
2022/06/13 03:16:35;;;;;;;2.03;1.50;;;20.60;85.70;;;;;;10039385;28;20250;-60
2022/06/13 03:21:30;;;;;;;6.22;2.25;;;20.40;85.50;;;;;;10057335;28;20511;-60
2022/06/13 03:26:25;;;;;;;1.17;0.77;;;20.40;85.40;;;;;;10045286;28;20059;-60
2022/06/13 03:31:32;;;;;;;2.78;1.25;;;20.40;85.00;;;;;;10038084;28;20026;-60
2022/06/13 03:36:31;;;;;;;5.40;1.00;;;20.30;84.60;;;;;;10052133;28;20109;-60
2022/06/13 03:41:27;;;;;;;2.25;1.00;;;20.20;84.60;;;;;;10054136;28;20033;-60
2022/06/13 03:46:41;;;;;;;4.25;1.70;;;20.10;84.70;;;;;;10053130;28;20029;-59
2022/06/13 03:51:45;;;;;;;5.30;1.85;;;19.90;84.40;;;;;;10018695;28;20037;-60
2022/06/13 03:56:42;;;;;;;1.42;0.90;;;19.90;84.60;;;;;;10039314;28;20057;-60
2022/06/13 04:02:01;;;;;;;1.60;0.93;;;19.90;84.30;;;;;;10024813;28;20030;-60
2022/06/13 04:06:54;;;;;;;2.63;1.10;;;20.00;84.10;;;;;;10041056;28;20099;-59
2022/06/13 04:12:06;;;;;;;3.53;1.95;;;19.80;84.10;;;;;;10038019;28;20038;-60
2022/06/13 04:17:15;;;;;;;3.95;1.88;;;19.70;84.20;;;;;;10038976;28;20025;-60
2022/06/13 04:22:22;;;;;;;3.28;1.45;;;19.80;84.10;;;;;;10045476;28;20365;-60
2022/06/13 04:27:20;;;;;;;5.38;1.25;;;19.70;84.20;;;;;;10044804;28;20446;-60
2022/06/13 04:32:16;;;;;;;4.03;1.17;;;19.50;84.50;;;;;;10037539;28;20055;-60
2022/06/13 04:37:07;;;;;;;;;;;19.50;84.80;;;;;;10049530;28;20031;-59
2022/06/13 04:42:00;;;;;;;2.55;1.23;;;19.50;84.60;;;;;;10052089;28;19913;-59
2022/06/13 04:46:52;;;;;;;2.78;1.40;;;19.50;84.50;;;;;;10037600;28;20064;-61
2022/06/13 04:51:44;;;;;;;2.65;1.63;;;19.50;84.40;;;;;;10031584;28;20122;-62
2022/06/13 04:56:35;;;;;;;2.33;1.45;;;19.50;84.10;;;;;;10052034;28;20040;-61
2022/06/13 05:01:32;;;;;;;3.25;1.30;;;19.50;84.30;;;;;;10051831;28;20541;-61
2022/06/13 05:06:37;;;;;;;4.63;1.17;;;19.50;84.30;;;;;;10040977;28;20406;-60
2022/06/13 05:11:35;;;;;;;5.50;2.20;;;19.70;84.10;;;;;;10037745;28;20045;-60
2022/06/13 05:16:35;;;;;;;2.25;1.42;;;19.60;84.00;;;;;;10036064;28;20022;-61
2022/06/13 05:22:04;;;;;;;7.93;1.98;;;19.70;83.90;;;;;;10052886;28;20045;-60
2022/06/13 05:26:54;;;;;;;6.40;1.75;;;19.60;84.30;;;;;;10053839;28;20020;-62
2022/06/13 05:31:45;;;;;;;4.25;1.77;;;19.60;84.30;;;;;;10044707;28;20033;-61
2022/06/13 05:36:35;;;;;;;3.70;1.55;;;19.70;84.10;;;;;;10052423;28;20016;-60
2022/06/13 05:41:27;;;;;;;4.50;1.73;;;19.80;84.00;;;;;;10058365;28;20052;-59
2022/06/13 05:46:31;;;;;;;6.30;2.47;;;19.80;83.90;;;;;;10058668;28;20602;-63
2022/06/13 05:51:22;;;;;;;2.00;1.00;;;19.80;84.00;;;;;;10047207;28;20400;-61
2022/06/13 05:56:16;;;;;;;5.32;2.35;;;20.00;83.80;;;;;;10058634;28;20026;-61
2022/06/13 06:01:07;;;;;;;4.73;1.90;;;19.90;83.60;;;;;;10065608;28;20438;-60
2022/06/13 06:06:00;;;;;;;2.63;1.63;;;19.90;83.70;;;;;;10060322;28;20132;-61
2022/06/13 06:10:53;;;;;;;8.13;2.47;;;19.90;83.90;;;;;;10057542;28;20047;-61
2022/06/13 06:15:46;;;;;;;3.05;1.48;;;19.90;83.80;;;;;;10056788;28;20058;-60
2022/06/13 06:20:37;;;;;;;2.88;1.58;;;20.10;83.50;;;;;;10060091;28;20021;-60
2022/06/13 06:25:27;;;;;;;3.67;1.58;;;20.10;83.20;;;;;;10056767;28;20034;-62
2022/06/13 06:30:18;;;;;;;2.67;1.55;;;20.40;83.10;;;;;;10058044;28;20451;-62
2022/06/13 06:35:09;;;;;;;6.47;1.50;;;20.30;83.10;;;;;;10071848;28;20033;-64
2022/06/13 06:40:00;;;;;;;7.80;2.10;;;20.30;82.90;;;;;;10055432;28;20523;-61
2022/06/13 06:44:51;;;;;;;3.13;1.60;;;20.20;82.80;;;;;;10074730;28;20025;-63
2022/06/13 06:49:41;;;;;;;3.72;1.67;;;20.40;82.80;;;;;;10078616;28;20237;-64
2022/06/13 06:59:53;;;;;;;3.38;1.60;;;20.40;82.60;;;;;;10071709;28;20421;-64
2022/06/13 07:04:44;;;;;;;6.88;1.50;;;20.40;82.40;;;;;;10050314;28;20042;-65
2022/06/13 07:09:34;;;;;;;2.35;1.30;;;20.40;82.30;;;;;;10055288;28;20036;-65
2022/06/13 07:14:34;;;;;;;3.75;1.70;;;20.60;82.20;;;;;;10055808;28;20052;-65
2022/06/13 07:19:25;;;;;;;5.07;1.80;;;20.70;81.70;;;;;;10054234;28;20029;-64
2022/06/13 07:24:16;;;;;;;4.75;1.92;;;20.60;81.90;;;;;;10055956;28;20021;-64
2022/06/13 07:29:07;;;;;;;4.45;1.85;;;20.80;81.50;;;;;;10066097;28;20033;-64
2022/06/13 07:33:58;;;;;;;9.43;2.08;;;20.80;81.40;;;;;;10066813;28;20458;-65
2022/06/13 07:38:49;;;;;;;6.78;2.72;;;20.90;81.30;;;;;;10065410;28;20021;-65
2022/06/13 07:43:42;;;;;;;4.72;1.60;;;21.00;81.00;;;;;;10050513;28;20056;-64
2022/06/13 07:48:34;;;;;;;5.63;1.63;;;21.20;80.70;;;;;;10077810;28;20125;-63
2022/06/13 07:53:24;;;;;;;5.68;2.08;;;21.50;80.30;;;;;;10073321;28;20048;-65
2022/06/13 07:58:27;;;;;;;7.50;1.75;;;21.60;80.10;;;;;;10075156;28;20064;-65
2022/06/13 08:03:24;;;;;;;3.53;1.52;;;21.50;80.30;;;;;;10063632;28;20099;-64
2022/06/13 08:08:16;;;;;;;6.18;2.08;;;21.40;80.00;;;;;;10062148;28;20033;-66
2022/06/13 08:13:07;;;;;;;4.28;1.90;;;21.50;79.90;;;;;;10060341;28;20164;-65
2022/06/13 08:17:57;;;;;;;8.07;1.80;;;21.40;79.50;;;;;;10054427;28;20124;-65
2022/06/13 08:22:49;;;;;;;3.45;2.08;;;21.30;79.60;;;;;;10059984;28;20022;-64
2022/06/13 08:27:40;;;;;;;2.70;1.83;;;21.30;79.20;;;;;;10061871;28;20053;-63
2022/06/13 08:32:31;;;;;;;3.83;1.80;;;21.30;79.80;;;;;;10067359;28;20053;-63
2022/06/13 08:37:21;;;;;;;6.43;2.58;;;21.40;78.90;;;;;;10064905;28;20025;-64
2022/06/13 08:42:25;;;;;;;3.30;1.80;;;21.60;78.40;;;;;;10047409;28;20026;-64
2022/06/13 08:47:37;;;;;;;7.85;1.85;;;22.10;77.30;;;;;;10070119;28;20491;-66
2022/06/13 08:52:36;;;;;;;5.80;1.83;;;22.40;75.60;;;;;;10072418;28;20041;-64
2022/06/13 08:57:31;;;;;;;2.95;1.75;;;22.60;76.30;;;;;;10073197;28;20013;-64
2022/06/13 09:02:29;;;;;;;5.82;1.90;;;22.50;75.30;;;;;;10068918;28;20458;-64
2022/06/13 09:07:45;;;;;;;2.22;1.40;;;22.80;74.70;;;;;;10060867;28;20037;-64
2022/06/13 09:12:52;;;;;;;3.25;1.70;;;22.60;73.90;;;;;;10063067;28;20037;-63
2022/06/13 09:18:16;;;;;;;5.25;1.95;;;22.30;73.50;;;;;;10067562;28;21796;-66
2022/06/13 09:23:31;;;;;;;2.80;1.40;;;21.90;73.40;;;;;;10065768;28;20079;-64
2022/06/13 09:28:22;;;;;;;3.63;1.55;;;22.30;71.60;;;;;;10063021;28;20443;-64
2022/06/13 09:33:21;;;;;;;3.03;1.50;;;22.40;72.10;;;;;;10064813;28;20069;-64
2022/06/13 09:38:41;;;;;;;6.30;2.63;;;22.30;71.70;;;;;;10036267;28;20369;-65
2022/06/13 09:44:01;;;;;;;9.43;2.97;;;22.20;71.60;;;;;;10064835;28;20043;-65
2022/06/13 09:49:08;;;;;;;5.80;2.08;;;22.70;71.10;;;;;;10069754;28;20132;-66
2022/06/13 09:54:04;;;;;;;3.25;1.65;;;22.90;70.80;;;;;;10054366;28;20033;-66
2022/06/13 09:59:16;;;;;;;6.07;1.58;;;23.00;70.70;;;;;;10058243;28;20423;-64
2022/06/13 10:04:45;;;;;;;4.03;1.80;;;23.10;70.40;;;;;;10062452;28;20416;-66
2022/06/13 10:09:48;;;;;;;5.50;2.95;;;22.80;69.30;;;;;;10057552;28;20503;-65
2022/06/13 10:15:16;;;;;;;3.20;1.50;;;22.90;69.50;;;;;;10067269;28;20124;-65
2022/06/13 10:20:31;;;;;;;5.13;2.08;;;22.90;69.00;;;;;;10047343;28;20091;-66
2022/06/13 10:25:36;;;;;;;3.67;1.67;;;22.90;68.40;;;;;;10062177;28;20028;-67
2022/06/13 10:30:44;;;;;;;4.65;1.50;;;22.90;67.40;;;;;;10057532;28;20056;-66
2022/06/13 10:36:03;;;;;;;3.00;1.55;;;22.90;65.40;;;;;;10038963;28;20025;-66
2022/06/13 10:40:54;;;;;;;2.97;1.40;;;22.90;65.70;;;;;;10068840;28;20048;-65
2022/06/13 10:45:46;;;;;;;1.60;1.15;;;22.90;65.70;;;;;;10068345;28;20130;-65
2022/06/13 10:50:46;;;;;;;7.63;3.08;;;23.10;65.00;;;;;;10072858;28;20032;-66
2022/06/13 10:55:41;;;;;;;3.35;1.60;;;23.30;64.40;;;;;;10070413;28;20108;-63
2022/06/13 11:00:32;;;;;;;1.50;1.30;;;23.40;63.70;;;;;;10066851;28;20733;-64
2022/06/13 11:05:25;;;;;;;3.83;1.38;;;23.30;63.20;;;;;;10056934;28;20041;-66
2022/06/13 11:10:27;;;;;;;2.72;1.40;;;23.30;62.70;;;;;;10070109;28;20194;-69
2022/06/13 11:31:55;;;;;;;2.92;1.55;;;23.90;61.20;;;;;;10070151;28;20410;-66
2022/06/13 11:37:19;;;;;;;2.57;1.63;;;24.20;60.80;;;;;;10057545;28;20377;-66
2022/06/13 11:42:20;;;;;;;1.95;1.23;;;24.40;59.60;;;;;;10047492;28;20787;-67
2022/06/13 11:47:11;;;;;;;2.42;2.05;;;24.50;60.10;;;;;;10056464;28;20446;-67
2022/06/13 11:52:05;;;;;;;2.67;1.15;;;24.80;59.80;;;;;;10057159;28;20428;-66
2022/06/13 11:57:14;;;;;;;;;;;24.50;59.30;;;;;;10054507;28;20132;-66
2022/06/13 12:02:16;;;;;;;2.53;1.13;;;24.20;58.60;;;;;;10056608;28;19913;-66
2022/06/13 12:07:24;;;;;;;3.47;1.60;;;24.40;58.30;;;;;;10044932;28;20168;-66
2022/06/13 12:12:14;;;;;;;2.28;1.00;;;24.60;57.10;;;;;;10058897;28;20396;-62
2022/06/13 12:17:19;;;;;;;3.45;0.90;;;25.00;57.10;;;;;;10053643;28;20022;-63
2022/06/13 12:22:20;;;;;;;1.77;1.10;;;25.20;56.00;;;;;;10064884;28;20403;-66
2022/06/13 12:27:11;;;;;;;2.33;1.00;;;25.60;55.10;;;;;;10065907;28;20028;-65
2022/06/13 12:32:04;;;;;;;3.15;1.20;;;25.70;56.70;;;;;;10037280;28;20087;-65
2022/06/13 12:37:07;;;;;;;;;;;26.00;56.00;;;;;;10069445;28;20017;-64
2022/06/13 12:42:26;;;;;;;2.35;1.00;;;26.40;55.20;;;;;;10069275;28;19917;-65
2022/06/13 12:47:25;;;;;;;2.58;1.40;;;27.10;55.40;;;;;;10056215;28;20041;-64
2022/06/13 12:52:24;;;;;;;5.47;1.70;;;27.90;51.80;;;;;;10056573;28;20037;-64
2022/06/13 12:57:30;;;;;;;1.83;1.00;;;28.90;52.20;;;;;;10065279;28;20106;-64
2022/06/13 13:02:32;;;;;;;3.10;1.83;;;29.40;50.10;;;;;;10060758;28;20029;-65
2022/06/13 13:08:08;;;;;;;4.93;1.20;;;30.40;48.60;;;;;;10057709;28;20050;-64
2022/06/13 13:13:38;;;;;;;2.60;1.05;;;31.20;46.20;;;;;;10047083;28;20045;-65
2022/06/13 13:18:43;;;;;;;2.97;1.00;;;31.60;44.90;;;;;;10047850;28;20033;-65
2022/06/13 13:23:52;;;;;;;4.32;0.90;;;32.40;44.30;;;;;;10057708;28;20084;-66
2022/06/13 13:28:43;;;;;;;4.38;1.17;;;32.50;42.50;;;;;;10048942;28;20017;-65
2022/06/13 13:33:49;;;;;;;2.20;0.90;;;32.80;41.80;;;;;;10055571;28;20025;-63
2022/06/13 13:38:45;;;;;;;2.90;1.33;;;32.70;39.70;;;;;;10058405;28;20454;-65
2022/06/13 13:43:52;;;;;;;4.20;1.75;;;32.50;39.70;;;;;;10059494;28;20018;-61
2022/06/13 13:48:56;;;;;;;4.57;2.53;;;32.50;38.50;;;;;;10068328;28;20021;-63
2022/06/13 13:54:03;;;;;;;3.80;1.10;;;32.60;37.90;;;;;;10084083;28;20069;-62
2022/06/13 13:58:56;;;;;;;3.42;0.90;;;32.30;37.60;;;;;;10076929;28;20021;-63
2022/06/13 14:04:02;;;;;;;1.10;0.90;;;32.80;37.50;;;;;;10069905;28;20042;-64
2022/06/13 14:08:57;;;;;;;3.05;1.10;;;33.00;36.30;;;;;;10053445;28;20021;-62
2022/06/13 14:13:58;;;;;;;2.63;1.73;;;33.40;36.40;;;;;;10059098;28;20034;-62
2022/06/13 14:19:02;;;;;;;2.47;1.43;;;33.40;36.40;;;;;;10056881;28;20206;-63
2022/06/13 14:23:58;;;;;;;3.45;1.40;;;33.60;35.60;;;;;;10068623;28;20284;-66
2022/06/13 14:28:53;;;;;;;2.25;1.10;;;33.10;35.20;;;;;;10037282;28;20076;-63
2022/06/13 14:39:03;;;;;;;3.35;1.25;;;33.70;34.90;;;;;;10059664;28;20109;-60
2022/06/13 14:44:12;;;;;;;2.92;1.30;;;34.20;34.70;;;;;;10059898;28;20021;-61
2022/06/13 14:49:16;;;;;;;2.33;1.10;;;33.60;34.40;;;;;;10053153;28;20107;-63
2022/06/13 14:54:43;;;;;;;2.15;1.17;;;33.40;34.40;;;;;;10063895;28;20022;-63
2022/06/13 15:00:09;;;;;;;2.38;1.40;;;33.30;33.40;;;;;;10054969;28;20032;-60
2022/06/13 15:05:07;;;;;;;3.97;1.42;;;32.80;34.00;;;;;;10051695;28;20136;-59
2022/06/13 15:10:06;;;;;;;3.92;1.73;;;33.50;33.80;;;;;;10051854;28;20040;-61
2022/06/13 15:15:01;;;;;;;1.55;1.20;;;33.10;33.50;;;;;;10057272;28;20086;-61
2022/06/13 15:19:57;;;;;;;4.70;2.00;;;32.90;33.90;;;;;;10055189;28;20017;-61
2022/06/13 15:24:58;;;;;;;3.70;1.40;;;33.00;34.00;;;;;;10055151;28;20255;-62
2022/06/13 15:30:04;;;;;;;1.50;1.27;;;33.20;33.70;;;;;;10037687;28;20020;-61
2022/06/13 15:35:06;;;;;;;3.80;1.52;;;33.70;33.80;;;;;;10054791;28;20034;-62
2022/06/13 15:39:56;;;;;;;3.60;1.58;;;33.60;33.10;;;;;;10055232;28;20430;-62
2022/06/13 15:44:48;;;;;;;1.63;1.10;;;33.70;34.60;;;;;;10055206;28;20044;-60
2022/06/13 15:49:42;;;;;;;2.33;1.27;;;33.80;33.80;;;;;;10054383;28;20041;-61
2022/06/13 15:54:37;;;;;;;4.63;1.85;;;33.60;33.70;;;;;;10040206;28;20087;-65
2022/06/13 15:59:27;;;;;;;3.15;1.20;;;34.00;33.60;;;;;;10051112;28;20032;-61
2022/06/13 16:04:26;;;;;;;3.10;1.20;;;33.90;33.10;;;;;;10053169;28;20054;-63
2022/06/13 16:09:28;;;;;;;2.38;1.42;;;34.30;33.00;;;;;;10047693;28;20567;-63
2022/06/13 16:14:20;;;;;;;1.63;1.23;;;34.70;32.50;;;;;;10047683;28;20034;-65
2022/06/13 16:19:24;;;;;;;2.40;1.52;;;35.20;32.80;;;;;;10054852;28;20048;-64
2022/06/13 16:24:16;;;;;;;2.65;1.40;;;35.20;32.30;;;;;;10057871;28;20049;-64
2022/06/13 16:29:07;;;;;;;3.33;1.55;;;35.90;32.20;;;;;;10052856;28;20029;-67
2022/06/13 16:34:00;;;;;;;2.75;1.65;;;35.90;31.70;;;;;;10052425;28;20049;-62
2022/06/13 16:38:53;;;;;;;2.22;1.38;;;37.20;31.50;;;;;;10048914;28;20101;-63
2022/06/13 16:43:51;;;;;;;2.08;1.63;;;37.10;31.20;;;;;;10049533;28;20022;-63
2022/06/13 16:48:50;;;;;;;3.53;2.25;;;37.50;30.10;;;;;;10050414;28;20013;-64
2022/06/13 16:53:53;;;;;;;8.07;1.80;;;37.00;30.50;;;;;;10050851;28;20044;-62
2022/06/13 16:58:47;;;;;;;5.20;1.70;;;37.80;30.10;;;;;;10051923;28;20105;-63
2022/06/13 17:03:59;;;;;;;4.75;1.52;;;37.70;30.10;;;;;;10049027;28;20139;-63
2022/06/13 17:09:10;;;;;;;4.63;1.50;;;37.60;29.80;;;;;;10051489;28;20397;-65
2022/06/13 17:14:00;;;;;;;3.88;1.38;;;36.90;29.40;;;;;;10049344;28;20029;-62
2022/06/13 17:18:54;;;;;;;4.57;1.40;;;37.30;30.00;;;;;;10051053;28;20035;-62
2022/06/13 17:23:47;;;;;;;5.63;1.58;;;37.20;30.00;;;;;;10056345;28;20038;-65
2022/06/13 17:33:50;;;;;;;3.65;1.70;;;36.30;30.20;;;;;;10051061;28;20107;-62
2022/06/13 17:38:41;;;;;;;3.10;1.63;;;36.30;30.40;;;;;;10050636;28;20082;-62
2022/06/13 17:43:34;;;;;;;5.20;1.80;;;35.60;30.70;;;;;;10050885;28;20040;-63
2022/06/13 17:48:25;;;;;;;2.17;1.20;;;35.00;30.90;;;;;;10050190;28;20044;-62
2022/06/13 17:53:16;;;;;;;3.33;1.38;;;34.50;31.50;;;;;;10050735;28;20037;-63
2022/06/13 17:58:09;;;;;;;4.68;1.75;;;34.70;31.10;;;;;;10051377;28;20365;-63
2022/06/13 18:03:04;;;;;;;2.58;1.77;;;34.10;31.50;;;;;;10037936;28;20504;-63
2022/06/13 18:07:57;;;;;;;3.90;1.42;;;31.40;32.70;;;;;;10050386;28;20029;-62
2022/06/13 18:12:48;;;;;;;2.97;1.42;;;29.40;33.90;;;;;;10051133;28;20036;-66
2022/06/13 18:17:42;;;;;;;2.50;1.40;;;28.40;34.50;;;;;;10050462;28;20040;-63
2022/06/13 18:22:35;;;;;;;2.45;1.70;;;27.80;34.60;;;;;;10058184;28;20087;-63
2022/06/13 18:27:26;;;;;;;2.22;1.45;;;27.10;35.40;;;;;;10057566;28;20049;-66
2022/06/13 18:32:17;;;;;;;2.53;1.52;;;26.80;35.70;;;;;;10056753;28;20424;-64
2022/06/13 18:37:08;;;;;;;4.18;1.50;;;26.70;36.20;;;;;;10056814;28;20563;-66
2022/06/13 18:42:02;;;;;;;3.45;1.42;;;26.50;36.60;;;;;;10056456;28;20021;-64
2022/06/13 18:46:53;;;;;;;5.90;2.08;;;26.50;36.80;;;;;;10056864;28;20029;-61
2022/06/13 18:51:44;;;;;;;3.63;1.27;;;26.30;37.00;;;;;;10056180;28;20036;-62
2022/06/13 18:56:34;;;;;;;2.55;1.58;;;26.20;37.50;;;;;;10056270;28;20029;-61
2022/06/13 19:01:25;;;;;;;4.95;1.60;;;26.00;37.80;;;;;;10061913;28;20040;-64
2022/06/13 19:06:19;;;;;;;3.15;1.52;;;25.80;38.20;;;;;;10037211;28;20128;-65
2022/06/13 19:11:13;;;;;;;4.20;1.58;;;25.80;38.80;;;;;;10055985;28;20539;-63
2022/06/13 19:16:04;;;;;;;5.05;2.45;;;25.80;38.60;;;;;;10056760;28;20033;-62
2022/06/13 19:20:55;;;;;;;3.60;1.55;;;25.80;38.80;;;;;;10060789;28;20028;-66
2022/06/13 19:25:48;;;;;;;2.58;1.92;;;25.50;39.00;;;;;;10055560;28;20442;-61
2022/06/13 19:30:41;;;;;;;2.28;1.30;;;25.20;39.50;;;;;;10055396;28;20396;-63
2022/06/13 19:35:37;;;;;;;2.35;1.90;;;25.20;39.70;;;;;;10054149;28;20025;-62
2022/06/13 19:40:33;;;;;;;2.95;1.60;;;25.10;40.10;;;;;;10054875;28;20491;-63
2022/06/13 19:45:24;;;;;;;3.42;1.75;;;24.90;40.40;;;;;;10053923;28;20037;-63
2022/06/13 19:50:15;;;;;;;3.88;2.03;;;24.70;40.80;;;;;;10053569;28;20018;-62
2022/06/13 19:55:15;;;;;;;3.47;1.88;;;24.90;40.80;;;;;;10053874;28;20447;-61
2022/06/13 20:00:07;;;;;;;2.85;1.85;;;24.70;41.30;;;;;;10058742;28;20492;-62
2022/06/13 20:05:00;;;;;;;4.45;2.50;;;24.50;41.60;;;;;;10053020;28;20048;-60
2022/06/13 20:09:52;;;;;;;2.65;1.73;;;24.60;41.90;;;;;;10045344;28;20132;-62
2022/06/13 20:14:42;;;;;;;4.47;2.78;;;24.60;41.90;;;;;;10052974;28;20549;-62
2022/06/13 20:19:38;;;;;;;2.80;1.48;;;24.60;42.20;;;;;;10053241;28;20056;-60
2022/06/13 20:24:28;;;;;;;3.35;1.40;;;24.50;42.60;;;;;;10052327;28;20061;-61
2022/06/13 20:29:19;;;;;;;5.28;1.75;;;24.10;43.30;;;;;;10056552;28;20192;-63
2022/06/13 20:34:21;;;;;;;4.07;1.92;;;24.00;43.70;;;;;;10042464;28;20126;-64
2022/06/13 20:39:18;;;;;;;6.88;2.47;;;24.30;43.90;;;;;;10052798;28;20025;-62
2022/06/13 20:44:13;;;;;;;2.67;1.83;;;24.60;43.80;;;;;;10036766;28;20674;-63
2022/06/13 20:49:13;;;;;;;2.90;1.63;;;24.40;44.40;;;;;;10051838;28;20497;-64
2022/06/13 20:54:04;;;;;;;2.97;1.52;;;24.20;44.80;;;;;;10052886;28;20044;-64
2022/06/13 20:58:54;;;;;;;3.08;1.83;;;24.00;45.10;;;;;;10059176;28;20400;-63
2022/06/13 21:03:53;;;;;;;3.75;1.50;;;24.00;45.70;;;;;;10039757;28;20431;-64
2022/06/13 21:13:54;;;;;;;4.97;1.88;;;24.00;45.90;;;;;;10057673;28;20052;-64
2022/06/13 21:18:45;;;;;;;6.78;2.03;;;23.70;46.70;;;;;;10062709;28;20116;-64
2022/06/13 21:23:35;;;;;;;6.15;1.85;;;23.90;46.70;;;;;;10056653;28;20570;-64
2022/06/13 21:28:26;;;;;;;4.20;1.77;;;23.90;47.00;;;;;;10052364;28;20503;-66
2022/06/13 21:33:17;;;;;;;5.25;2.00;;;24.00;46.80;;;;;;10052401;28;20033;-66
2022/06/13 21:38:08;;;;;;;9.50;2.65;;;23.90;47.10;;;;;;10051703;28;20120;-63
2022/06/13 21:42:59;;;;;;;3.90;2.05;;;23.90;47.30;;;;;;10051961;28;20441;-63
2022/06/13 21:47:50;;;;;;;4.28;2.13;;;23.80;47.70;;;;;;10052477;28;20173;-64
2022/06/13 21:52:41;;;;;;;2.92;1.98;;;23.50;48.50;;;;;;10050226;28;20045;-65
2022/06/13 21:57:32;;;;;;;5.78;2.70;;;23.30;49.30;;;;;;10038710;28;20025;-65
2022/06/13 22:02:23;;;;;;;7.88;3.38;;;23.20;49.40;;;;;;10071347;28;20033;-64
2022/06/13 22:07:13;;;;;;;5.25;2.65;;;22.80;50.10;;;;;;10059489;28;20045;-64
2022/06/13 22:12:06;;;;;;;4.80;2.85;;;22.60;50.50;;;;;;10056644;28;20086;-64
2022/06/13 22:16:56;;;;;;;5.00;1.98;;;22.60;50.80;;;;;;10041261;28;20017;-63
2022/06/13 22:21:47;;;;;;;4.40;2.22;;;22.80;50.50;;;;;;10063064;28;20404;-64
2022/06/13 22:26:42;;;;;;;4.47;2.38;;;22.70;51.10;;;;;;10054702;28;20021;-63
2022/06/13 22:31:34;;;;;;;4.43;1.90;;;22.70;51.50;;;;;;10025378;28;20183;-64
2022/06/13 22:36:25;;;;;;;2.83;2.17;;;22.70;51.30;;;;;;10055598;28;20199;-64
2022/06/13 22:41:15;;;;;;;5.45;2.05;;;22.60;51.50;;;;;;10057994;28;20341;-63
2022/06/13 22:46:06;;;;;;;5.03;2.42;;;22.40;51.70;;;;;;10039502;28;20028;-64
2022/06/13 22:51:01;;;;;;;3.90;2.17;;;22.30;52.20;;;;;;10060424;28;20450;-63
2022/06/13 22:55:54;;;;;;;2.85;1.83;;;22.30;52.50;;;;;;10057801;28;20022;-63
2022/06/13 23:00:44;;;;;;;4.55;2.25;;;22.20;52.60;;;;;;10039378;28;20052;-63
2022/06/13 23:05:35;;;;;;;3.65;2.30;;;22.10;52.80;;;;;;10054387;28;20058;-63
2022/06/13 23:10:26;;;;;;;7.65;2.25;;;22.10;53.00;;;;;;10053291;28;20377;-64
2022/06/13 23:15:18;;;;;;;4.13;1.95;;;22.00;53.00;;;;;;10057523;28;20068;-64
2022/06/13 23:20:10;;;;;;;5.90;2.05;;;21.90;53.30;;;;;;10057646;28;20047;-65
2022/06/13 23:25:01;;;;;;;4.05;2.33;;;21.90;53.40;;;;;;10058827;28;20018;-63
2022/06/13 23:29:54;;;;;;;3.83;1.98;;;21.80;53.20;;;;;;10062707;28;20230;-63
2022/06/13 23:34:45;;;;;;;3.88;1.77;;;21.70;53.50;;;;;;10056307;28;20442;-64
2022/06/13 23:39:36;;;;;;;5.18;2.08;;;21.50;53.70;;;;;;10054596;28;20029;-64
2022/06/13 23:44:26;;;;;;;2.58;1.50;;;21.60;53.50;;;;;;10051904;28;20029;-63
2022/06/13 23:49:17;;;;;;;4.43;2.10;;;21.60;53.40;;;;;;10054568;28;20041;-65
2022/06/13 23:54:08;;;;;;;6.07;2.65;;;21.60;54.20;;;;;;10055267;28;20381;-64
2022/06/13 23:58:58;;;;;;;3.67;1.85;;;21.40;53.80;;;;;;10056934;28;20021;-65
